默认 日期 大小 文件数 浏览量 最新下载 xml
- sport磁力链接相关资源由用户搜索指令自动获取,结果来源于网络,本站不存储任何资料,亦不承担任何责任,请于24小时内删除,搜索到3452个磁力,用时4ms。
    {"02-16-livings.lay.pdf": 9036440}
创建时间: 2018-11-15 21:02:04 大小:8.62 MB 文件数量:1 热度:7 最近下载:2025-05-13 14:59:03
    {"The Ultimate Guide to Knife Throwing.epub": 8074698}
创建时间: 2018-11-15 22:57:54 大小:7.7 MB 文件数量:1 热度:9 最近下载:2025-03-11 12:43:03
    {"Redist": {"DXSETUP.exe": 299864, "vcredist_x86.exe": 6506256}, "setup.exe": 8040370, "data-1.bin": 335255608, "data-2.bin": 533618016}
创建时间: 2018-11-15 23:30:08 大小:842.78 MB 文件数量:5 热度:5 最近下载:2025-05-13 13:42:02
    {"sport1.jpg": 7618823, "sport1.tif": 42686412, "sport2.jpg": 9186323, "sport2.tif": 49723404, "sport3.jpg": 13172701, "sport3.tif": 64219268, "sport4.jpg": 12096495, "sport4.tif": 66184400, "sport5.jpg": 9125290, "sport5.tif": 53657340, "sport6.jpg": ...
创建时间: 2018-11-15 23:53:07 大小:632.33 MB 文件数量:20 热度:6 最近下载:2025-05-13 12:36:01
    ... .png": 145055}, "A.Question.of.Sport.S48E15.480p.x264-mSD.mkv ... ": 110187854, "A.Question.of.Sport.S48E15.480p.x264-mSD.nfo ...
创建时间: 2018-11-16 03:16:44 大小:105.86 MB 文件数量:7 热度:6 最近下载:2024-09-21 15:11:02
    {"Future Sport.avi": 733925376}
创建时间: 2018-11-16 07:25:59 大小:699.93 MB 文件数量:1 热度:6 最近下载:2025-05-11 01:40:01
    {"07.Formula1.2016.R06.Monaco.Gran.Prix.F1.Show.ts": 628380976, "01.Formula1.2016.R06.Monaco.Gran.Prix.F1.Report.ts": 641578576, "03.Formula1.2016.R06.Monaco.Gran.Prix.Paddock.Uncut.ts": 356739964, "04.Formula1.2016.R06.Monaco.Gran.Prix.Free.Practice.One. ...
创建时间: 2018-11-16 09:57:27 大小:13.98 GB 文件数量:11 热度:10 最近下载:2025-01-26 06:40:04
    {"Beg": {"Beg-01.ai": 226745, "Beg-02.ai": 268227, "Beg-03.ai": 284923, "Beg-04.ai": 419751, "Beg-05.ai": 202536, "Beg-06.ai": 280207, "Beg-07.ai": 101360, "Beg-08.ai": 108035, "Beg-09.ai": 100339, "Beg-10.ai": 101884, "Beg-11.AI": 297126, "Beg-12.ai": ...
创建时间: 2018-11-16 13:08:42 大小:122.45 MB 文件数量:364 热度:12 最近下载:2025-03-15 21:47:03
    {"Human Kinetics - Sport Taping Basics.rar": 2459838492}
创建时间: 2018-11-16 13:53:15 大小:2.29 GB 文件数量:1 热度:9 最近下载:2025-05-13 12:56:02
    {"nympho-sfd2.avi": 728596480, "nympho-sf6d2.nfo": 7512}
创建时间: 2018-11-16 14:09:37 大小:694.85 MB 文件数量:2 热度:7 最近下载:2025-05-12 20:50:02
    {"Proof": {"chi-btis12-proof.jpg": 144238}, "RARBG.com.txt": 34, "chi-btis12.mp4": 1762424659, "chi-btis12.nfo": 12374}
创建时间: 2018-11-17 04:55:04 大小:1.64 GB 文件数量:4 热度:25 最近下载:2025-10-03 17:15:04
    {"Levante vs Barcelona.1st.ts": 1996468820, "Levante vs Barcelona.2nd.ts": 6001366644, "Levante vs Barcelona.1st_add.ts": 3867702756}
创建时间: 2018-11-17 07:25:37 大小:11.05 GB 文件数量:3 热度:25 最近下载:2025-08-02 19:49:02
    {"Sport Fucking 5 CD1.avi": 730812416, "Sport Fucking 5 CD2.avi": 731320320, "Sport Fucking 5 CD3.avi": 730443776}
创建时间: 2018-11-17 07:59:38 大小:2.04 GB 文件数量:3 热度:15 最近下载:2025-08-03 18:32:06
    {"VIDEO_TS": {"VIDEO_TS.BUP": 14336, "VIDEO_TS.IFO": 14336, "VIDEO_TS.VOB": 5910528, "VTS_01_0.BUP": 51200, "VTS_01_0.IFO": 51200, "VTS_01_0.VOB": 15513600, "VTS_01_1.VOB": 1073483776, "VTS_01_2.VOB": 1073487872, "VTS_01_3.VOB": 1073440768, "VTS_01_4.VOB": ...
创建时间: 2018-11-17 14:24:27 大小:3.34 GB 文件数量:17 热度:10 最近下载:2025-05-15 09:53:01
    {"04 Korn - Alive.mp3": 11129036, "18 Moby - Run On .mp3": 9173004, "48 U2 - Elevation.mp3": 9376742, "Спорт-хит.jpg": 236720, "16 Skillet - Hero .mp3": 7717444, "22 Karmin - Hello .mp3": 9747681, "12 Zendaya - Replay .mp3": 8860563, "14 Ciara - Overdose . ...
创建时间: 2018-11-17 18:03:02 大小:890.92 MB 文件数量:86 热度:8 最近下载:2025-05-16 00:41:01
    ... ": 6479, "Fuck Buttons - Tarot Sport.cue": 1056, "04 Fuck Buttons - ...
创建时间: 2018-11-17 18:37:43 大小:431.03 MB 文件数量:10 热度:8 最近下载:2025-05-12 16:29:01
    {"11.Formula1.2016.R02.Bahrain.Gran.Prix.Race.mkv": 4599757529, "7.Formula1.2016.R02.Bahrain.Gran.Prix.F1.Show.mkv": 648529993, "1.Formula1.2016.R02.Bahrain.Gran.Prix.F1.Report.mkv": 610256830, "9.Formula1.2016.R02.Bahrain.Gran.Prix.Qualifying.mkv": ...
创建时间: 2018-11-17 19:19:53 大小:16.75 GB 文件数量:11 热度:18 最近下载:2025-08-23 16:41:02
    {"11.Formula1.2016.R08.European.Gran.Prix.Race.ts": 6321194124, "07.Formula1.2016.R08.European.Gran.Prix.F1.Show.ts": 625619632, "09.Formula1.2016.R08.European.Gran.Prix.Qualifying.ts": 3598688104, "03.Formula1.2016.R08.European.Gran.Prix.Paddock.Uncut.ts ...
创建时间: 2018-11-17 21:06:54 大小:18.75 GB 文件数量:10 热度:14 最近下载:2025-05-12 16:41:02
    {"07.Formula1.2016.R08.European.Gran.Prix.F1.Show.ts": 625619632, "03.Formula1.2016.R08.European.Gran.Prix.Paddock.Uncut.ts": 331972844, "04.Formula1.2016.R08.European.Gran.Prix.Free.Practice.One.ts": 2687232332, "05.Formula1.2016.R08.European.Gran.Prix. ...
创建时间: 2018-11-17 21:11:56 大小:7.2 GB 文件数量:6 热度:11 最近下载:2025-03-26 14:21:02
    {"cover.jpg": 20619, "07 - le_sport_-_think_of_you.mp3": 5165056, "03 - le_sport_-_chemical_drugs.mp3": 5310464, "10 - le_sport-lovetrain-rullstol.mp3": 5581518, "05 - le_sport_-_show_me_your_penis.mp3": 4227072, "00 - le sport_-_eurosport_music_baby!.mp3 ...
创建时间: 2018-11-17 21:22:04 大小:49.48 MB 文件数量:12 热度:9 最近下载:2025-03-01 19:53:03